sensor_id;sensor_type;location;lat;lon;timestamp;P1;durP1;ratioP1;P2;durP2;ratioP2
55210;SDS011;41082;52.822;6.666;2023-11-19T00:00:40;37.50;;;22.40;;
55210;SDS011;41082;52.822;6.666;2023-11-19T00:03:05;41.72;;;22.08;;
55210;SDS011;41082;52.822;6.666;2023-11-19T00:05:31;43.53;;;22.75;;
55210;SDS011;41082;52.822;6.666;2023-11-19T00:07:57;46.50;;;24.85;;
55210;SDS011;41082;52.822;6.666;2023-11-19T00:10:22;45.67;;;24.08;;
55210;SDS011;41082;52.822;6.666;2023-11-19T00:12:48;54.00;;;26.35;;
55210;SDS011;41082;52.822;6.666;2023-11-19T00:15:15;56.35;;;27.02;;
55210;SDS011;41082;52.822;6.666;2023-11-19T00:17:44;49.42;;;26.40;;
55210;SDS011;41082;52.822;6.666;2023-11-19T00:20:14;56.47;;;28.08;;
55210;SDS011;41082;52.822;6.666;2023-11-19T00:22:41;57.90;;;28.63;;
55210;SDS011;41082;52.822;6.666;2023-11-19T00:25:07;57.08;;;28.73;;
55210;SDS011;41082;52.822;6.666;2023-11-19T00:27:34;61.20;;;28.67;;
55210;SDS011;41082;52.822;6.666;2023-11-19T00:29:59;53.88;;;27.17;;
55210;SDS011;41082;52.822;6.666;2023-11-19T00:32:25;60.03;;;27.08;;
55210;SDS011;41082;52.822;6.666;2023-11-19T00:34:51;61.75;;;29.10;;
55210;SDS011;41082;52.822;6.666;2023-11-19T00:37:16;58.08;;;28.45;;
55210;SDS011;41082;52.822;6.666;2023-11-19T00:39:42;57.38;;;27.50;;
55210;SDS011;41082;52.822;6.666;2023-11-19T00:42:11;60.20;;;27.58;;
55210;SDS011;41082;52.822;6.666;2023-11-19T00:44:37;60.25;;;27.30;;
55210;SDS011;41082;52.822;6.666;2023-11-19T00:47:02;56.85;;;26.90;;
55210;SDS011;41082;52.822;6.666;2023-11-19T00:49:28;60.75;;;26.48;;
55210;SDS011;41082;52.822;6.666;2023-11-19T00:51:54;60.08;;;25.58;;
55210;SDS011;41082;52.822;6.666;2023-11-19T00:54:19;53.28;;;24.85;;
55210;SDS011;41082;52.822;6.666;2023-11-19T00:56:45;57.38;;;24.90;;
55210;SDS011;41082;52.822;6.666;2023-11-19T00:59:11;54.80;;;24.23;;
55210;SDS011;41082;52.822;6.666;2023-11-19T01:01:37;59.80;;;23.25;;
55210;SDS011;41082;52.822;6.666;2023-11-19T01:04:02;47.15;;;21.13;;
55210;SDS011;41082;52.822;6.666;2023-11-19T01:06:28;48.25;;;19.75;;
55210;SDS011;41082;52.822;6.666;2023-11-19T01:08:55;52.60;;;20.08;;
55210;SDS011;41082;52.822;6.666;2023-11-19T01:11:22;43.42;;;18.17;;
55210;SDS011;41082;52.822;6.666;2023-11-19T01:13:48;45.22;;;17.45;;
55210;SDS011;41082;52.822;6.666;2023-11-19T01:16:14;37.72;;;15.98;;
55210;SDS011;41082;52.822;6.666;2023-11-19T01:18:39;38.38;;;15.85;;
55210;SDS011;41082;52.822;6.666;2023-11-19T01:21:05;39.13;;;15.13;;
55210;SDS011;41082;52.822;6.666;2023-11-19T01:23:31;40.10;;;13.85;;
55210;SDS011;41082;52.822;6.666;2023-11-19T01:25:57;38.92;;;13.43;;
55210;SDS011;41082;52.822;6.666;2023-11-19T01:28:23;47.00;;;12.40;;
55210;SDS011;41082;52.822;6.666;2023-11-19T01:30:52;40.88;;;11.30;;
55210;SDS011;41082;52.822;6.666;2023-11-19T01:33:17;46.50;;;10.70;;
55210;SDS011;41082;52.822;6.666;2023-11-19T01:35:43;39.72;;;10.27;;
55210;SDS011;41082;52.822;6.666;2023-11-19T01:38:09;30.17;;;9.68;;
55210;SDS011;41082;52.822;6.666;2023-11-19T01:40:35;36.63;;;10.40;;
55210;SDS011;41082;52.822;6.666;2023-11-19T01:43:01;39.90;;;8.85;;
55210;SDS011;41082;52.822;6.666;2023-11-19T01:45:28;31.63;;;7.70;;
55210;SDS011;41082;52.822;6.666;2023-11-19T01:47:56;34.13;;;8.77;;
55210;SDS011;41082;52.822;6.666;2023-11-19T01:50:22;36.97;;;8.65;;
55210;SDS011;41082;52.822;6.666;2023-11-19T01:52:50;30.70;;;7.07;;
55210;SDS011;41082;52.822;6.666;2023-11-19T01:55:20;31.80;;;6.80;;
55210;SDS011;41082;52.822;6.666;2023-11-19T01:57:46;36.63;;;7.03;;
55210;SDS011;41082;52.822;6.666;2023-11-19T02:00:14;35.50;;;6.70;;
55210;SDS011;41082;52.822;6.666;2023-11-19T02:02:41;33.20;;;5.70;;
55210;SDS011;41082;52.822;6.666;2023-11-19T02:05:11;26.08;;;5.68;;
55210;SDS011;41082;52.822;6.666;2023-11-19T02:07:38;33.08;;;5.63;;
55210;SDS011;41082;52.822;6.666;2023-11-19T02:10:04;35.72;;;5.93;;
55210;SDS011;41082;52.822;6.666;2023-11-19T02:12:31;30.30;;;5.70;;
55210;SDS011;41082;52.822;6.666;2023-11-19T02:15:00;29.48;;;5.30;;
55210;SDS011;41082;52.822;6.666;2023-11-19T02:17:28;29.05;;;5.43;;
55210;SDS011;41082;52.822;6.666;2023-11-19T02:19:56;33.92;;;5.75;;
55210;SDS011;41082;52.822;6.666;2023-11-19T02:22:22;29.33;;;5.35;;
55210;SDS011;41082;52.822;6.666;2023-11-19T02:24:48;32.58;;;5.53;;
55210;SDS011;41082;52.822;6.666;2023-11-19T02:27:51;32.25;;;5.50;;
55210;SDS011;41082;52.822;6.666;2023-11-19T02:30:20;35.33;;;4.68;;
55210;SDS011;41082;52.822;6.666;2023-11-19T02:32:51;30.80;;;5.43;;
55210;SDS011;41082;52.822;6.666;2023-11-19T02:35:22;38.83;;;5.18;;
55210;SDS011;41082;52.822;6.666;2023-11-19T02:37:48;33.10;;;5.68;;
55210;SDS011;41082;52.822;6.666;2023-11-19T02:40:14;32.38;;;5.00;;
55210;SDS011;41082;52.822;6.666;2023-11-19T02:42:40;33.70;;;4.93;;
55210;SDS011;41082;52.822;6.666;2023-11-19T02:45:06;37.28;;;5.18;;
55210;SDS011;41082;52.822;6.666;2023-11-19T02:47:33;39.15;;;5.07;;
55210;SDS011;41082;52.822;6.666;2023-11-19T02:49:59;34.30;;;5.35;;
55210;SDS011;41082;52.822;6.666;2023-11-19T02:52:25;33.10;;;4.90;;
55210;SDS011;41082;52.822;6.666;2023-11-19T02:54:51;31.95;;;4.65;;
55210;SDS011;41082;52.822;6.666;2023-11-19T02:57:16;27.50;;;3.88;;
55210;SDS011;41082;52.822;6.666;2023-11-19T02:59:44;38.45;;;4.45;;
55210;SDS011;41082;52.822;6.666;2023-11-19T03:02:10;33.38;;;4.20;;
55210;SDS011;41082;52.822;6.666;2023-11-19T03:04:41;28.55;;;3.80;;
55210;SDS011;41082;52.822;6.666;2023-11-19T03:07:08;26.67;;;3.60;;
55210;SDS011;41082;52.822;6.666;2023-11-19T03:09:34;33.72;;;4.70;;
55210;SDS011;41082;52.822;6.666;2023-11-19T03:12:00;28.90;;;3.55;;
55210;SDS011;41082;52.822;6.666;2023-11-19T03:14:26;30.80;;;4.60;;
55210;SDS011;41082;52.822;6.666;2023-11-19T03:16:52;34.42;;;4.20;;
55210;SDS011;41082;52.822;6.666;2023-11-19T03:19:18;30.83;;;4.57;;
55210;SDS011;41082;52.822;6.666;2023-11-19T03:21:44;29.60;;;4.50;;
55210;SDS011;41082;52.822;6.666;2023-11-19T03:24:10;31.42;;;4.35;;
55210;SDS011;41082;52.822;6.666;2023-11-19T03:26:38;26.65;;;3.65;;
55210;SDS011;41082;52.822;6.666;2023-11-19T03:29:04;33.72;;;4.93;;
55210;SDS011;41082;52.822;6.666;2023-11-19T03:31:29;34.78;;;4.95;;
55210;SDS011;41082;52.822;6.666;2023-11-19T03:33:55;28.60;;;3.92;;
55210;SDS011;41082;52.822;6.666;2023-11-19T03:36:21;27.80;;;3.30;;
55210;SDS011;41082;52.822;6.666;2023-11-19T03:38:47;32.28;;;4.68;;
55210;SDS011;41082;52.822;6.666;2023-11-19T03:41:13;30.90;;;4.38;;
55210;SDS011;41082;52.822;6.666;2023-11-19T03:43:39;31.42;;;4.72;;
55210;SDS011;41082;52.822;6.666;2023-11-19T03:46:21;34.00;;;4.70;;
55210;SDS011;41082;52.822;6.666;2023-11-19T03:48:47;29.33;;;4.55;;
55210;SDS011;41082;52.822;6.666;2023-11-19T03:51:14;32.75;;;4.60;;
55210;SDS011;41082;52.822;6.666;2023-11-19T03:53:42;28.38;;;4.63;;
55210;SDS011;41082;52.822;6.666;2023-11-19T03:56:08;32.17;;;4.60;;
55210;SDS011;41082;52.822;6.666;2023-11-19T03:58:35;37.92;;;5.03;;
55210;SDS011;41082;52.822;6.666;2023-11-19T04:01:01;38.65;;;5.68;;
55210;SDS011;41082;52.822;6.666;2023-11-19T04:03:27;36.75;;;4.20;;
55210;SDS011;41082;52.822;6.666;2023-11-19T04:05:53;40.30;;;5.72;;
55210;SDS011;41082;52.822;6.666;2023-11-19T04:08:19;32.45;;;4.03;;
55210;SDS011;41082;52.822;6.666;2023-11-19T04:10:44;37.13;;;5.32;;
55210;SDS011;41082;52.822;6.666;2023-11-19T04:13:10;37.00;;;4.50;;
55210;SDS011;41082;52.822;6.666;2023-11-19T04:15:36;37.10;;;5.70;;
55210;SDS011;41082;52.822;6.666;2023-11-19T04:18:01;40.30;;;5.07;;
55210;SDS011;41082;52.822;6.666;2023-11-19T04:20:27;43.53;;;5.50;;
55210;SDS011;41082;52.822;6.666;2023-11-19T04:22:53;38.78;;;5.25;;
55210;SDS011;41082;52.822;6.666;2023-11-19T04:25:18;38.03;;;5.47;;
55210;SDS011;41082;52.822;6.666;2023-11-19T04:27:44;32.88;;;5.13;;
55210;SDS011;41082;52.822;6.666;2023-11-19T04:30:10;34.47;;;4.75;;
55210;SDS011;41082;52.822;6.666;2023-11-19T04:32:37;38.75;;;5.05;;
55210;SDS011;41082;52.822;6.666;2023-11-19T04:35:02;31.25;;;4.78;;
55210;SDS011;41082;52.822;6.666;2023-11-19T04:37:28;34.92;;;5.32;;
55210;SDS011;41082;52.822;6.666;2023-11-19T04:39:54;40.58;;;5.82;;
55210;SDS011;41082;52.822;6.666;2023-11-19T04:42:22;46.60;;;5.60;;
55210;SDS011;41082;52.822;6.666;2023-11-19T04:44:47;36.30;;;6.10;;
55210;SDS011;41082;52.822;6.666;2023-11-19T04:47:13;44.20;;;5.43;;
55210;SDS011;41082;52.822;6.666;2023-11-19T04:49:42;41.28;;;5.03;;
55210;SDS011;41082;52.822;6.666;2023-11-19T04:52:08;40.50;;;5.05;;
55210;SDS011;41082;52.822;6.666;2023-11-19T04:54:33;34.25;;;4.50;;
55210;SDS011;41082;52.822;6.666;2023-11-19T04:56:59;38.35;;;5.18;;
55210;SDS011;41082;52.822;6.666;2023-11-19T04:59:25;44.95;;;5.97;;
55210;SDS011;41082;52.822;6.666;2023-11-19T05:01:52;32.15;;;5.88;;
55210;SDS011;41082;52.822;6.666;2023-11-19T05:04:18;36.33;;;5.15;;
55210;SDS011;41082;52.822;6.666;2023-11-19T05:06:46;44.17;;;6.03;;
55210;SDS011;41082;52.822;6.666;2023-11-19T05:09:12;39.05;;;4.78;;
55210;SDS011;41082;52.822;6.666;2023-11-19T05:11:38;37.72;;;5.80;;
55210;SDS011;41082;52.822;6.666;2023-11-19T05:14:05;38.33;;;5.20;;
55210;SDS011;41082;52.822;6.666;2023-11-19T05:16:31;40.15;;;6.13;;
55210;SDS011;41082;52.822;6.666;2023-11-19T05:18:57;34.03;;;5.32;;
55210;SDS011;41082;52.822;6.666;2023-11-19T05:21:22;48.13;;;5.85;;
55210;SDS011;41082;52.822;6.666;2023-11-19T05:23:49;45.60;;;5.85;;
55210;SDS011;41082;52.822;6.666;2023-11-19T05:26:21;52.92;;;6.07;;
55210;SDS011;41082;52.822;6.666;2023-11-19T05:28:48;36.58;;;5.47;;
55210;SDS011;41082;52.822;6.666;2023-11-19T05:31:15;36.42;;;5.50;;
55210;SDS011;41082;52.822;6.666;2023-11-19T05:33:42;40.28;;;6.00;;
55210;SDS011;41082;52.822;6.666;2023-11-19T05:36:08;38.85;;;5.35;;
55210;SDS011;41082;52.822;6.666;2023-11-19T05:38:35;40.40;;;5.78;;
55210;SDS011;41082;52.822;6.666;2023-11-19T05:41:02;35.05;;;5.18;;
55210;SDS011;41082;52.822;6.666;2023-11-19T05:43:28;35.25;;;4.70;;
55210;SDS011;41082;52.822;6.666;2023-11-19T05:45:53;37.78;;;5.00;;
55210;SDS011;41082;52.822;6.666;2023-11-19T05:48:19;41.53;;;5.80;;
55210;SDS011;41082;52.822;6.666;2023-11-19T05:50:44;40.60;;;6.05;;
55210;SDS011;41082;52.822;6.666;2023-11-19T05:53:11;45.83;;;6.10;;
55210;SDS011;41082;52.822;6.666;2023-11-19T05:55:38;39.65;;;5.38;;
55210;SDS011;41082;52.822;6.666;2023-11-19T05:58:30;46.08;;;5.68;;
55210;SDS011;41082;52.822;6.666;2023-11-19T06:00:57;37.38;;;5.10;;
55210;SDS011;41082;52.822;6.666;2023-11-19T06:03:25;33.55;;;4.95;;
55210;SDS011;41082;52.822;6.666;2023-11-19T06:05:51;42.13;;;4.63;;
55210;SDS011;41082;52.822;6.666;2023-11-19T06:08:17;33.67;;;5.25;;
55210;SDS011;41082;52.822;6.666;2023-11-19T06:10:45;44.80;;;5.80;;
55210;SDS011;41082;52.822;6.666;2023-11-19T06:13:15;48.30;;;5.45;;
55210;SDS011;41082;52.822;6.666;2023-11-19T06:15:41;43.88;;;5.22;;
55210;SDS011;41082;52.822;6.666;2023-11-19T06:18:08;43.30;;;5.50;;
55210;SDS011;41082;52.822;6.666;2023-11-19T06:20:34;46.17;;;5.13;;
55210;SDS011;41082;52.822;6.666;2023-11-19T06:23:00;48.95;;;5.93;;
55210;SDS011;41082;52.822;6.666;2023-11-19T06:25:25;38.47;;;5.55;;
55210;SDS011;41082;52.822;6.666;2023-11-19T06:27:51;39.30;;;4.75;;
55210;SDS011;41082;52.822;6.666;2023-11-19T06:30:18;44.50;;;6.35;;
55210;SDS011;41082;52.822;6.666;2023-11-19T06:32:44;37.63;;;4.88;;
55210;SDS011;41082;52.822;6.666;2023-11-19T06:35:10;42.38;;;5.47;;
55210;SDS011;41082;52.822;6.666;2023-11-19T06:37:39;36.63;;;4.82;;
55210;SDS011;41082;52.822;6.666;2023-11-19T06:40:06;44.42;;;5.35;;
55210;SDS011;41082;52.822;6.666;2023-11-19T06:42:34;40.78;;;6.07;;
55210;SDS011;41082;52.822;6.666;2023-11-19T06:45:00;36.33;;;4.72;;
55210;SDS011;41082;52.822;6.666;2023-11-19T06:47:27;36.30;;;4.95;;
55210;SDS011;41082;52.822;6.666;2023-11-19T06:49:53;41.70;;;5.20;;
55210;SDS011;41082;52.822;6.666;2023-11-19T06:52:20;31.20;;;4.72;;
55210;SDS011;41082;52.822;6.666;2023-11-19T06:54:46;45.35;;;4.95;;
55210;SDS011;41082;52.822;6.666;2023-11-19T06:57:12;39.90;;;5.20;;
55210;SDS011;41082;52.822;6.666;2023-11-19T06:59:38;41.85;;;5.32;;
55210;SDS011;41082;52.822;6.666;2023-11-19T07:02:04;40.97;;;6.35;;
55210;SDS011;41082;52.822;6.666;2023-11-19T07:04:30;48.25;;;5.50;;
55210;SDS011;41082;52.822;6.666;2023-11-19T07:06:56;35.47;;;4.78;;
55210;SDS011;41082;52.822;6.666;2023-11-19T07:09:22;38.45;;;5.43;;
55210;SDS011;41082;52.822;6.666;2023-11-19T07:11:48;31.77;;;6.25;;
55210;SDS011;41082;52.822;6.666;2023-11-19T07:14:15;34.25;;;5.80;;
55210;SDS011;41082;52.822;6.666;2023-11-19T07:16:41;43.88;;;6.00;;
55210;SDS011;41082;52.822;6.666;2023-11-19T07:19:08;39.95;;;6.30;;
55210;SDS011;41082;52.822;6.666;2023-11-19T07:21:34;43.25;;;6.47;;
55210;SDS011;41082;52.822;6.666;2023-11-19T07:24:03;43.45;;;5.97;;
55210;SDS011;41082;52.822;6.666;2023-11-19T07:26:30;49.22;;;6.40;;
55210;SDS011;41082;52.822;6.666;2023-11-19T07:28:56;48.63;;;5.68;;
55210;SDS011;41082;52.822;6.666;2023-11-19T07:31:23;43.83;;;6.03;;
55210;SDS011;41082;52.822;6.666;2023-11-19T07:33:49;45.08;;;6.15;;
55210;SDS011;41082;52.822;6.666;2023-11-19T07:36:15;39.15;;;5.32;;
55210;SDS011;41082;52.822;6.666;2023-11-19T07:38:41;37.22;;;5.25;;
55210;SDS011;41082;52.822;6.666;2023-11-19T07:41:07;42.70;;;5.43;;
55210;SDS011;41082;52.822;6.666;2023-11-19T07:43:39;42.85;;;6.07;;
55210;SDS011;41082;52.822;6.666;2023-11-19T07:46:10;40.55;;;5.78;;
55210;SDS011;41082;52.822;6.666;2023-11-19T07:48:38;41.47;;;5.50;;
55210;SDS011;41082;52.822;6.666;2023-11-19T07:51:07;42.00;;;5.70;;
55210;SDS011;41082;52.822;6.666;2023-11-19T07:53:33;39.13;;;6.55;;
55210;SDS011;41082;52.822;6.666;2023-11-19T07:55:59;38.55;;;5.28;;
55210;SDS011;41082;52.822;6.666;2023-11-19T07:58:25;38.63;;;6.28;;
55210;SDS011;41082;52.822;6.666;2023-11-19T08:00:51;38.22;;;5.47;;
55210;SDS011;41082;52.822;6.666;2023-11-19T08:03:17;36.97;;;5.15;;
55210;SDS011;41082;52.822;6.666;2023-11-19T08:05:44;36.85;;;4.75;;
55210;SDS011;41082;52.822;6.666;2023-11-19T08:08:11;40.40;;;4.65;;
55210;SDS011;41082;52.822;6.666;2023-11-19T08:10:37;33.92;;;4.68;;
55210;SDS011;41082;52.822;6.666;2023-11-19T08:13:03;41.92;;;6.38;;
55210;SDS011;41082;52.822;6.666;2023-11-19T08:15:29;33.17;;;5.35;;
55210;SDS011;41082;52.822;6.666;2023-11-19T08:17:54;45.92;;;5.72;;
55210;SDS011;41082;52.822;6.666;2023-11-19T08:20:20;35.58;;;5.75;;
55210;SDS011;41082;52.822;6.666;2023-11-19T08:22:46;40.90;;;5.97;;
55210;SDS011;41082;52.822;6.666;2023-11-19T08:25:11;38.55;;;5.28;;
55210;SDS011;41082;52.822;6.666;2023-11-19T08:27:37;34.83;;;5.32;;
55210;SDS011;41082;52.822;6.666;2023-11-19T08:30:03;33.67;;;4.93;;
55210;SDS011;41082;52.822;6.666;2023-11-19T08:32:31;44.42;;;5.18;;
55210;SDS011;41082;52.822;6.666;2023-11-19T08:34:56;36.42;;;6.05;;
55210;SDS011;41082;52.822;6.666;2023-11-19T08:37:22;40.55;;;5.20;;
55210;SDS011;41082;52.822;6.666;2023-11-19T08:39:48;38.72;;;5.10;;
55210;SDS011;41082;52.822;6.666;2023-11-19T08:42:14;37.60;;;5.00;;
55210;SDS011;41082;52.822;6.666;2023-11-19T08:44:41;40.20;;;6.28;;
55210;SDS011;41082;52.822;6.666;2023-11-19T08:47:08;44.13;;;5.18;;
55210;SDS011;41082;52.822;6.666;2023-11-19T08:49:34;37.58;;;4.47;;
55210;SDS011;41082;52.822;6.666;2023-11-19T08:52:00;40.25;;;4.65;;
55210;SDS011;41082;52.822;6.666;2023-11-19T08:54:26;37.85;;;5.18;;
55210;SDS011;41082;52.822;6.666;2023-11-19T08:56:52;37.42;;;5.35;;
55210;SDS011;41082;52.822;6.666;2023-11-19T08:59:18;40.55;;;5.78;;
55210;SDS011;41082;52.822;6.666;2023-11-19T09:01:44;34.63;;;4.68;;
55210;SDS011;41082;52.822;6.666;2023-11-19T09:04:10;37.95;;;4.60;;
55210;SDS011;41082;52.822;6.666;2023-11-19T09:06:36;34.08;;;4.90;;
55210;SDS011;41082;52.822;6.666;2023-11-19T09:09:02;38.20;;;4.60;;
55210;SDS011;41082;52.822;6.666;2023-11-19T09:11:30;43.53;;;6.03;;
55210;SDS011;41082;52.822;6.666;2023-11-19T09:13:56;35.67;;;4.35;;
55210;SDS011;41082;52.822;6.666;2023-11-19T09:16:22;41.70;;;5.15;;
55210;SDS011;41082;52.822;6.666;2023-11-19T09:18:48;40.28;;;6.70;;
55210;SDS011;41082;52.822;6.666;2023-11-19T09:21:14;40.95;;;5.18;;
55210;SDS011;41082;52.822;6.666;2023-11-19T09:23:39;36.70;;;5.13;;
55210;SDS011;41082;52.822;6.666;2023-11-19T09:26:05;49.15;;;4.78;;
55210;SDS011;41082;52.822;6.666;2023-11-19T09:28:33;36.92;;;4.45;;
55210;SDS011;41082;52.822;6.666;2023-11-19T09:30:58;41.70;;;5.82;;
55210;SDS011;41082;52.822;6.666;2023-11-19T09:33:24;38.88;;;5.68;;
55210;SDS011;41082;52.822;6.666;2023-11-19T09:35:51;39.33;;;5.57;;
55210;SDS011;41082;52.822;6.666;2023-11-19T09:38:17;42.03;;;5.90;;
55210;SDS011;41082;52.822;6.666;2023-11-19T09:40:42;39.83;;;5.43;;
55210;SDS011;41082;52.822;6.666;2023-11-19T09:43:08;41.00;;;5.25;;
55210;SDS011;41082;52.822;6.666;2023-11-19T09:45:43;36.47;;;5.90;;
55210;SDS011;41082;52.822;6.666;2023-11-19T09:48:16;36.85;;;5.20;;
55210;SDS011;41082;52.822;6.666;2023-11-19T09:50:44;38.65;;;5.75;;
55210;SDS011;41082;52.822;6.666;2023-11-19T09:53:13;37.40;;;5.10;;
55210;SDS011;41082;52.822;6.666;2023-11-19T09:55:42;34.83;;;5.15;;
55210;SDS011;41082;52.822;6.666;2023-11-19T09:58:08;39.30;;;5.32;;
55210;SDS011;41082;52.822;6.666;2023-11-19T10:00:36;37.25;;;4.60;;
55210;SDS011;41082;52.822;6.666;2023-11-19T10:03:03;30.10;;;4.57;;
55210;SDS011;41082;52.822;6.666;2023-11-19T10:05:32;40.38;;;4.88;;
55210;SDS011;41082;52.822;6.666;2023-11-19T10:07:57;43.88;;;5.47;;
55210;SDS011;41082;52.822;6.666;2023-11-19T10:10:23;41.28;;;4.90;;
55210;SDS011;41082;52.822;6.666;2023-11-19T10:12:52;42.20;;;5.25;;
55210;SDS011;41082;52.822;6.666;2023-11-19T10:15:21;36.25;;;5.07;;
55210;SDS011;41082;52.822;6.666;2023-11-19T10:17:51;36.22;;;5.10;;
55210;SDS011;41082;52.822;6.666;2023-11-19T10:20:26;47.05;;;4.88;;
55210;SDS011;41082;52.822;6.666;2023-11-19T10:22:55;44.10;;;5.07;;
55210;SDS011;41082;52.822;6.666;2023-11-19T10:25:27;36.90;;;4.72;;
55210;SDS011;41082;52.822;6.666;2023-11-19T10:27:56;45.90;;;6.35;;
55210;SDS011;41082;52.822;6.666;2023-11-19T10:30:26;39.30;;;4.72;;
55210;SDS011;41082;52.822;6.666;2023-11-19T10:33:08;40.75;;;5.30;;
55210;SDS011;41082;52.822;6.666;2023-11-19T10:35:36;45.00;;;5.32;;
55210;SDS011;41082;52.822;6.666;2023-11-19T10:38:17;42.25;;;5.22;;
55210;SDS011;41082;52.822;6.666;2023-11-19T10:40:43;43.90;;;5.28;;
55210;SDS011;41082;52.822;6.666;2023-11-19T10:43:09;46.05;;;5.10;;
55210;SDS011;41082;52.822;6.666;2023-11-19T10:45:38;42.83;;;5.70;;
55210;SDS011;41082;52.822;6.666;2023-11-19T10:48:04;39.03;;;5.05;;
55210;SDS011;41082;52.822;6.666;2023-11-19T10:50:33;37.13;;;4.43;;
55210;SDS011;41082;52.822;6.666;2023-11-19T10:53:01;31.95;;;4.45;;
55210;SDS011;41082;52.822;6.666;2023-11-19T10:55:28;36.55;;;5.07;;
55210;SDS011;41082;52.822;6.666;2023-11-19T10:57:58;41.35;;;5.30;;
55210;SDS011;41082;52.822;6.666;2023-11-19T11:00:37;39.55;;;4.95;;
55210;SDS011;41082;52.822;6.666;2023-11-19T11:03:17;48.33;;;6.05;;
55210;SDS011;41082;52.822;6.666;2023-11-19T11:05:48;39.55;;;5.13;;
55210;SDS011;41082;52.822;6.666;2023-11-19T11:08:15;44.45;;;5.35;;
55210;SDS011;41082;52.822;6.666;2023-11-19T11:10:45;45.63;;;5.38;;
55210;SDS011;41082;52.822;6.666;2023-11-19T11:13:17;35.42;;;5.93;;
55210;SDS011;41082;52.822;6.666;2023-11-19T11:15:44;49.13;;;7.60;;
55210;SDS011;41082;52.822;6.666;2023-11-19T11:18:13;38.70;;;4.57;;
55210;SDS011;41082;52.822;6.666;2023-11-19T11:20:39;48.67;;;5.63;;
55210;SDS011;41082;52.822;6.666;2023-11-19T11:36:27;36.08;;;4.32;;
55210;SDS011;41082;52.822;6.666;2023-11-19T11:38:56;44.25;;;5.75;;
55210;SDS011;41082;52.822;6.666;2023-11-19T11:41:25;38.72;;;5.57;;
55210;SDS011;41082;52.822;6.666;2023-11-19T11:43:52;31.30;;;4.07;;
55210;SDS011;41082;52.822;6.666;2023-11-19T11:49:16;31.38;;;4.35;;
55210;SDS011;41082;52.822;6.666;2023-11-19T11:57:01;35.30;;;4.65;;
55210;SDS011;41082;52.822;6.666;2023-11-19T12:02:17;43.80;;;5.75;;
55210;SDS011;41082;52.822;6.666;2023-11-19T12:04:52;42.65;;;5.32;;
55210;SDS011;41082;52.822;6.666;2023-11-19T12:12:34;40.00;;;5.28;;
55210;SDS011;41082;52.822;6.666;2023-11-19T12:15:06;37.63;;;5.07;;
55210;SDS011;41082;52.822;6.666;2023-11-19T12:17:36;35.80;;;6.38;;
55210;SDS011;41082;52.822;6.666;2023-11-19T12:20:14;33.90;;;4.50;;
55210;SDS011;41082;52.822;6.666;2023-11-19T12:22:42;40.10;;;4.75;;
55210;SDS011;41082;52.822;6.666;2023-11-19T12:25:09;40.97;;;4.82;;
55210;SDS011;41082;52.822;6.666;2023-11-19T12:27:35;46.65;;;5.50;;
55210;SDS011;41082;52.822;6.666;2023-11-19T12:30:02;37.85;;;5.25;;
55210;SDS011;41082;52.822;6.666;2023-11-19T12:32:39;48.50;;;6.88;;
55210;SDS011;41082;52.822;6.666;2023-11-19T12:35:06;39.28;;;4.55;;
55210;SDS011;41082;52.822;6.666;2023-11-19T12:37:38;32.70;;;4.30;;
55210;SDS011;41082;52.822;6.666;2023-11-19T12:42:38;31.13;;;3.83;;
55210;SDS011;41082;52.822;6.666;2023-11-19T12:45:04;38.42;;;4.72;;
55210;SDS011;41082;52.822;6.666;2023-11-19T12:47:30;38.90;;;5.00;;
55210;SDS011;41082;52.822;6.666;2023-11-19T12:49:56;31.40;;;4.32;;
55210;SDS011;41082;52.822;6.666;2023-11-19T12:52:22;29.27;;;3.72;;
55210;SDS011;41082;52.822;6.666;2023-11-19T12:54:48;38.90;;;5.07;;
55210;SDS011;41082;52.822;6.666;2023-11-19T12:57:14;39.50;;;4.88;;
55210;SDS011;41082;52.822;6.666;2023-11-19T12:59:40;45.15;;;4.90;;
55210;SDS011;41082;52.822;6.666;2023-11-19T13:02:06;34.38;;;5.38;;
55210;SDS011;41082;52.822;6.666;2023-11-19T13:04:32;37.70;;;4.50;;
55210;SDS011;41082;52.822;6.666;2023-11-19T13:06:58;35.70;;;3.97;;
55210;SDS011;41082;52.822;6.666;2023-11-19T13:09:25;35.75;;;3.63;;
55210;SDS011;41082;52.822;6.666;2023-11-19T13:11:52;30.98;;;4.03;;
55210;SDS011;41082;52.822;6.666;2023-11-19T13:14:19;36.67;;;4.82;;
55210;SDS011;41082;52.822;6.666;2023-11-19T13:16:45;37.88;;;4.40;;
55210;SDS011;41082;52.822;6.666;2023-11-19T13:19:11;36.05;;;4.85;;
55210;SDS011;41082;52.822;6.666;2023-11-19T13:21:38;43.58;;;6.10;;
55210;SDS011;41082;52.822;6.666;2023-11-19T13:24:07;35.00;;;4.45;;
55210;SDS011;41082;52.822;6.666;2023-11-19T13:26:33;31.17;;;3.58;;
55210;SDS011;41082;52.822;6.666;2023-11-19T13:29:00;33.22;;;4.75;;
55210;SDS011;41082;52.822;6.666;2023-11-19T13:31:25;30.58;;;3.58;;
55210;SDS011;41082;52.822;6.666;2023-11-19T13:33:51;38.10;;;4.93;;
55210;SDS011;41082;52.822;6.666;2023-11-19T13:36:17;39.95;;;4.05;;
55210;SDS011;41082;52.822;6.666;2023-11-19T13:38:43;30.63;;;3.28;;
55210;SDS011;41082;52.822;6.666;2023-11-19T13:41:12;33.72;;;4.15;;
55210;SDS011;41082;52.822;6.666;2023-11-19T13:43:38;32.20;;;4.28;;
55210;SDS011;41082;52.822;6.666;2023-11-19T13:46:04;37.22;;;4.05;;
55210;SDS011;41082;52.822;6.666;2023-11-19T13:48:30;37.67;;;4.82;;
55210;SDS011;41082;52.822;6.666;2023-11-19T13:50:56;38.13;;;5.70;;
55210;SDS011;41082;52.822;6.666;2023-11-19T13:53:22;37.67;;;4.38;;
55210;SDS011;41082;52.822;6.666;2023-11-19T13:55:48;29.67;;;3.22;;
55210;SDS011;41082;52.822;6.666;2023-11-19T13:58:15;21.20;;;3.10;;
55210;SDS011;41082;52.822;6.666;2023-11-19T14:00:41;25.15;;;3.63;;
55210;SDS011;41082;52.822;6.666;2023-11-19T14:03:07;32.83;;;3.83;;
55210;SDS011;41082;52.822;6.666;2023-11-19T14:05:34;32.00;;;3.63;;
55210;SDS011;41082;52.822;6.666;2023-11-19T14:08:00;30.77;;;4.07;;
55210;SDS011;41082;52.822;6.666;2023-11-19T14:10:26;30.70;;;4.60;;
55210;SDS011;41082;52.822;6.666;2023-11-19T14:12:52;26.05;;;3.22;;
55210;SDS011;41082;52.822;6.666;2023-11-19T14:15:17;35.15;;;3.55;;
55210;SDS011;41082;52.822;6.666;2023-11-19T14:17:43;35.85;;;4.57;;
55210;SDS011;41082;52.822;6.666;2023-11-19T14:20:09;29.67;;;4.20;;
55210;SDS011;41082;52.822;6.666;2023-11-19T14:22:47;32.50;;;4.63;;
55210;SDS011;41082;52.822;6.666;2023-11-19T14:25:14;30.17;;;3.88;;
55210;SDS011;41082;52.822;6.666;2023-11-19T14:27:40;31.17;;;4.40;;
55210;SDS011;41082;52.822;6.666;2023-11-19T14:30:08;26.25;;;4.07;;
55210;SDS011;41082;52.822;6.666;2023-11-19T14:32:39;31.83;;;4.50;;
55210;SDS011;41082;52.822;6.666;2023-11-19T14:35:08;30.88;;;3.20;;
55210;SDS011;41082;52.822;6.666;2023-11-19T14:37:34;41.50;;;4.68;;
55210;SDS011;41082;52.822;6.666;2023-11-19T14:40:00;37.20;;;4.60;;
55210;SDS011;41082;52.822;6.666;2023-11-19T14:42:28;39.67;;;4.82;;
55210;SDS011;41082;52.822;6.666;2023-11-19T14:44:54;37.22;;;4.82;;
55210;SDS011;41082;52.822;6.666;2023-11-19T14:47:23;31.13;;;3.83;;
55210;SDS011;41082;52.822;6.666;2023-11-19T14:49:48;34.28;;;4.72;;
55210;SDS011;41082;52.822;6.666;2023-11-19T14:52:14;35.45;;;3.83;;
55210;SDS011;41082;52.822;6.666;2023-11-19T14:54:40;43.35;;;4.22;;
55210;SDS011;41082;52.822;6.666;2023-11-19T14:57:05;30.20;;;3.88;;
55210;SDS011;41082;52.822;6.666;2023-11-19T14:59:35;35.42;;;3.70;;
55210;SDS011;41082;52.822;6.666;2023-11-19T15:02:03;36.17;;;4.53;;
55210;SDS011;41082;52.822;6.666;2023-11-19T15:04:30;34.92;;;5.00;;